createdAt,value
2024-04-19T00:00:28.293Z,175.42
2024-04-19T00:01:28.124Z,175.14
2024-04-19T00:02:28.053Z,177.66
2024-04-19T00:03:28.279Z,177.05
2024-04-19T00:04:28.226Z,178.75
2024-04-19T00:05:28.121Z,178.65
2024-04-19T00:06:28.180Z,177.46
2024-04-19T00:07:28.150Z,179.07
2024-04-19T00:08:28.169Z,176.66
2024-04-19T00:09:28.299Z,180.02
2024-04-19T00:10:28.235Z,176.64
2024-04-19T00:11:28.282Z,179.77
2024-04-19T00:12:28.247Z,175.73
2024-04-19T00:13:28.190Z,181.39
2024-04-19T00:14:28.265Z,177.76
2024-04-19T00:15:28.262Z,176.61
2024-04-19T00:16:28.232Z,177.59
2024-04-19T00:17:28.269Z,179.05
2024-04-19T00:18:28.330Z,176.59
2024-04-19T00:19:28.287Z,179.17
2024-04-19T00:20:28.334Z,178.71
2024-04-19T00:21:28.340Z,179.04
2024-04-19T00:22:28.274Z,180.20
2024-04-19T00:23:28.298Z,180.08
2024-04-19T00:24:28.360Z,179.07
2024-04-19T00:25:28.339Z,179.14
2024-04-19T00:26:28.336Z,180.34
2024-04-19T00:27:28.368Z,180.98
2024-04-19T00:28:28.378Z,179.90
2024-04-19T00:29:28.400Z,182.06
2024-04-19T00:30:28.439Z,180.46
2024-04-19T00:31:28.425Z,178.96
2024-04-19T00:32:28.440Z,181.26
2024-04-19T00:33:28.721Z,180.86
2024-04-19T00:34:28.590Z,179.99
2024-04-19T00:35:28.503Z,180.16
2024-04-19T00:36:28.588Z,180.56
2024-04-19T00:37:28.528Z,182.44
2024-04-19T00:38:28.484Z,179.79
2024-04-19T00:39:28.611Z,181.29
2024-04-19T00:40:28.534Z,179.06
2024-04-19T00:41:28.587Z,180.99
2024-04-19T00:42:28.597Z,178.97
2024-04-19T00:43:28.574Z,178.78
2024-04-19T00:44:28.611Z,181.07
2024-04-19T00:45:28.702Z,182.33
2024-04-19T00:46:28.620Z,182.06
2024-04-19T00:47:28.840Z,183.30
2024-04-19T00:48:28.692Z,180.20
2024-04-19T00:49:28.723Z,182.88
2024-04-19T00:50:28.714Z,179.79
2024-04-19T00:51:28.740Z,182.89
2024-04-19T00:52:28.726Z,180.59
2024-04-19T00:53:28.743Z,180.62
2024-04-19T00:54:28.810Z,178.41
2024-04-19T00:55:28.811Z,183.59
2024-04-19T00:56:29.770Z,183.19
2024-04-19T00:57:28.817Z,180.34
2024-04-19T00:58:28.824Z,181.89
2024-04-19T00:59:28.871Z,181.37
2024-04-19T01:00:28.974Z,183.25
2024-04-19T01:01:29.007Z,183.23
2024-04-19T01:02:28.920Z,183.72
2024-04-19T01:03:28.996Z,184.20
2024-04-19T01:04:29.010Z,181.85
2024-04-19T01:05:29.018Z,180.53
2024-04-19T01:06:29.153Z,180.45
2024-04-19T01:07:29.270Z,183.32
2024-04-19T01:08:29.053Z,181.63
2024-04-19T01:09:29.132Z,182.17
2024-04-19T01:10:29.051Z,179.72
2024-04-19T01:11:29.165Z,181.84
2024-04-19T01:12:29.184Z,184.58
2024-04-19T01:13:29.114Z,183.99
2024-04-19T01:14:29.193Z,179.77
2024-04-19T01:15:29.224Z,184.59
2024-04-19T01:16:29.283Z,180.93
2024-04-19T01:17:29.432Z,184.45
2024-04-19T01:18:29.363Z,182.41
2024-04-19T01:19:29.337Z,178.95
2024-04-19T01:20:29.343Z,182.50
2024-04-19T01:21:29.377Z,184.03
2024-04-19T01:22:29.340Z,182.84
2024-04-19T01:23:29.400Z,182.38
2024-04-19T01:24:29.448Z,186.07
2024-04-19T01:25:29.405Z,184.27
2024-04-19T01:26:29.473Z,185.36
2024-04-19T01:27:29.521Z,184.40
2024-04-19T01:28:29.484Z,180.94
2024-04-19T01:29:29.517Z,183.05
2024-04-19T01:30:29.593Z,184.71
2024-04-19T01:31:29.608Z,184.12
2024-04-19T01:32:29.614Z,183.95
2024-04-19T01:33:29.726Z,184.08
2024-04-19T01:34:29.680Z,183.43
2024-04-19T01:35:29.758Z,185.34
2024-04-19T01:36:29.719Z,184.77
2024-04-19T01:37:29.750Z,184.97
2024-04-19T01:38:29.746Z,181.55
2024-04-19T01:39:29.914Z,183.95
2024-04-19T01:40:29.779Z,184.88
2024-04-19T01:41:29.785Z,181.84
2024-04-19T01:42:29.867Z,184.70
2024-04-19T01:43:29.833Z,184.15
2024-04-19T01:44:29.900Z,181.69
2024-04-19T01:45:29.920Z,184.41
2024-04-19T01:46:29.968Z,185.38
2024-04-19T01:47:29.970Z,184.04
2024-04-19T01:48:30.034Z,184.85
2024-04-19T01:49:30.056Z,183.29
2024-04-19T01:50:30.102Z,184.52
2024-04-19T01:51:30.107Z,184.20
2024-04-19T01:52:30.055Z,184.23
2024-04-19T01:53:30.066Z,183.54
2024-04-19T01:54:30.160Z,186.14
2024-04-19T01:55:30.118Z,185.32
2024-04-19T01:56:30.146Z,186.02
2024-04-19T01:57:30.179Z,183.15
2024-04-19T01:58:30.204Z,184.50
2024-04-19T01:59:30.213Z,184.73
2024-04-19T02:00:30.310Z,185.65
2024-04-19T02:01:30.371Z,184.83
2024-04-19T02:02:30.340Z,184.48
2024-04-19T02:03:30.322Z,186.32
2024-04-19T02:04:30.393Z,184.93
2024-04-19T02:05:30.306Z,183.69
2024-04-19T02:06:30.419Z,184.38
2024-04-19T02:07:30.419Z,186.60
2024-04-19T02:08:30.424Z,185.34
2024-04-19T02:09:30.523Z,185.02
2024-04-19T02:10:30.491Z,184.30
2024-04-19T02:11:30.592Z,183.81
2024-04-19T02:12:30.610Z,184.73
2024-04-19T02:13:30.612Z,183.86
2024-04-19T02:14:30.594Z,184.88
2024-04-19T02:15:30.633Z,185.55
2024-04-19T02:16:30.658Z,186.70
2024-04-19T02:17:30.898Z,186.87
2024-04-19T02:18:30.914Z,186.93
2024-04-19T02:19:30.754Z,184.48
2024-04-19T02:20:30.708Z,184.56
2024-04-19T02:21:30.845Z,184.61
2024-04-19T02:22:30.810Z,186.32
2024-04-19T02:23:30.825Z,186.72
2024-04-19T02:24:30.861Z,186.01
2024-04-19T02:25:30.869Z,185.99
2024-04-19T02:26:30.924Z,186.61
2024-04-19T02:27:31.020Z,186.71
2024-04-19T02:28:30.968Z,188.16
2024-04-19T02:29:30.975Z,185.07
2024-04-19T02:30:31.061Z,185.08
2024-04-19T02:31:31.041Z,186.03
2024-04-19T02:32:31.100Z,186.14
2024-04-19T02:33:31.196Z,186.57
2024-04-19T02:34:31.060Z,185.44
2024-04-19T02:35:31.162Z,186.36
2024-04-19T02:36:31.145Z,185.38
2024-04-19T02:37:31.183Z,182.27
2024-04-19T02:38:31.194Z,186.66
2024-04-19T02:39:31.263Z,186.35
2024-04-19T02:40:31.270Z,184.03
2024-04-19T02:41:31.270Z,185.66
2024-04-19T02:42:31.346Z,186.89
2024-04-19T02:43:31.326Z,184.93
2024-04-19T02:44:31.355Z,184.61
2024-04-19T02:45:33.628Z,185.36
2024-04-19T02:46:31.467Z,188.76
2024-04-19T02:47:31.454Z,188.69
2024-04-19T02:48:31.455Z,186.55
2024-04-19T02:49:31.471Z,186.38
2024-04-19T02:50:31.431Z,185.99
2024-04-19T02:51:31.402Z,186.34
2024-04-19T02:52:31.387Z,187.45
2024-04-19T02:53:31.396Z,186.14
2024-04-19T02:54:31.505Z,185.99
2024-04-19T02:55:31.402Z,188.36
2024-04-19T02:56:31.437Z,185.54
2024-04-19T02:57:31.447Z,186.96
2024-04-19T02:58:31.400Z,187.87
2024-04-19T02:59:31.451Z,187.39
2024-04-19T03:00:31.574Z,189.08
2024-04-19T03:01:31.450Z,187.02
2024-04-19T03:02:31.446Z,188.39
2024-04-19T03:03:31.547Z,185.89
2024-04-19T03:04:31.481Z,187.62
2024-04-19T03:05:31.457Z,185.87
2024-04-19T03:06:31.491Z,184.41
2024-04-19T03:07:31.469Z,188.16
2024-04-19T03:08:31.406Z,185.92
2024-04-19T03:09:31.451Z,186.99
2024-04-19T03:10:31.415Z,188.14
2024-04-19T03:11:31.472Z,189.75
2024-04-19T03:12:31.447Z,187.56
2024-04-19T03:13:31.452Z,187.14
2024-04-19T03:14:31.426Z,187.14
2024-04-19T03:15:31.468Z,185.46
2024-04-19T03:16:31.459Z,184.19
2024-04-19T03:17:31.516Z,188.59
2024-04-19T03:18:31.460Z,186.95
2024-04-19T03:19:31.402Z,186.07
2024-04-19T03:20:31.443Z,186.05
2024-04-19T03:21:31.501Z,186.67
2024-04-19T03:22:31.449Z,187.76
2024-04-19T03:23:31.435Z,184.19
2024-04-19T03:24:31.460Z,185.75
2024-04-19T03:25:31.456Z,185.14
2024-04-19T03:26:33.191Z,189.17
2024-04-19T03:27:31.438Z,189.04
2024-04-19T03:28:31.422Z,187.64
2024-04-19T03:29:31.432Z,187.97
2024-04-19T03:30:31.484Z,186.38
2024-04-19T03:31:31.449Z,186.45
2024-04-19T03:32:31.520Z,186.88
2024-04-19T03:33:31.628Z,188.40
2024-04-19T03:34:31.463Z,189.03
2024-04-19T03:35:31.423Z,188.50
2024-04-19T03:36:31.498Z,187.96
2024-04-19T03:37:31.445Z,188.47
2024-04-19T03:38:31.493Z,188.77
2024-04-19T03:39:31.509Z,185.85
2024-04-19T03:40:31.459Z,189.88
2024-04-19T03:41:31.485Z,187.94
2024-04-19T03:42:31.476Z,188.08
2024-04-19T03:43:31.496Z,187.11
2024-04-19T03:44:31.462Z,188.44
2024-04-19T03:45:31.538Z,188.80
2024-04-19T03:46:31.450Z,184.90
2024-04-19T03:47:31.524Z,191.35
2024-04-19T03:48:31.629Z,187.74
2024-04-19T03:49:31.443Z,186.09
2024-04-19T03:50:31.450Z,188.68
2024-04-19T03:51:31.510Z,187.14
2024-04-19T03:52:31.460Z,188.14
2024-04-19T03:53:31.531Z,186.84
2024-04-19T03:54:31.468Z,188.18
2024-04-19T03:55:31.456Z,188.74
2024-04-19T03:56:31.461Z,188.34
2024-04-19T03:57:31.493Z,188.64
2024-04-19T03:58:31.448Z,187.36
2024-04-19T03:59:31.468Z,187.42
2024-04-19T04:00:31.462Z,185.96
2024-04-19T04:01:31.565Z,185.96
2024-04-19T04:02:31.490Z,188.69
2024-04-19T04:03:31.485Z,190.33
2024-04-19T04:04:31.484Z,188.44
2024-04-19T04:05:31.478Z,187.61
2024-04-19T04:06:31.516Z,188.33
2024-04-19T04:07:31.464Z,188.18
2024-04-19T04:08:31.556Z,185.73
2024-04-19T04:09:31.514Z,183.59
2024-04-19T04:10:31.497Z,181.20
2024-04-19T04:11:31.491Z,179.53
2024-04-19T04:12:31.492Z,176.12
2024-04-19T04:13:31.476Z,174.00
2024-04-19T04:14:31.510Z,171.73
2024-04-19T04:15:31.527Z,170.61
2024-04-19T04:16:31.498Z,167.21
2024-04-19T04:17:31.557Z,167.21
2024-04-19T04:18:31.593Z,161.51
2024-04-19T04:19:31.461Z,158.99
2024-04-19T04:20:31.505Z,154.48
2024-04-19T04:21:31.501Z,152.98
2024-04-19T04:22:31.510Z,150.54
2024-04-19T04:23:31.516Z,150.78
2024-04-19T04:24:31.492Z,148.27
2024-04-19T04:25:31.482Z,144.95
2024-04-19T04:26:31.506Z,142.00
2024-04-19T04:27:31.569Z,142.95
2024-04-19T04:28:31.536Z,137.83
2024-04-19T04:29:31.593Z,138.86
2024-04-19T04:30:31.619Z,133.53
2024-04-19T04:31:31.510Z,133.54
2024-04-19T04:32:31.579Z,131.63
2024-04-19T04:33:31.568Z,131.92
2024-04-19T04:34:31.615Z,129.48
2024-04-19T04:35:31.652Z,129.98
2024-04-19T04:36:31.721Z,129.42
2024-04-19T04:37:31.755Z,129.27
2024-04-19T04:38:31.770Z,128.70
2024-04-19T04:39:39.099Z,50.00
2024-04-19T04:40:39.031Z,50.00
2024-04-19T04:41:39.037Z,50.00
2024-04-19T04:42:39.914Z,50.00
2024-04-19T04:43:39.062Z,50.00
2024-04-19T04:44:39.077Z,51.66
2024-04-19T04:45:39.125Z,50.93
2024-04-19T04:46:39.109Z,50.00
2024-04-19T04:47:39.207Z,53.63
2024-04-19T04:48:39.074Z,54.26
2024-04-19T04:49:39.070Z,50.37
2024-04-19T04:50:39.065Z,51.08
2024-04-19T04:51:39.062Z,51.77
2024-04-19T04:52:39.079Z,53.03
2024-04-19T04:53:39.051Z,50.53
2024-04-19T04:54:39.068Z,51.56
2024-04-19T04:55:39.052Z,52.38
2024-04-19T04:56:39.052Z,52.55
2024-04-19T04:57:39.782Z,51.46
2024-04-19T04:58:39.112Z,52.60
2024-04-19T04:59:39.067Z,53.27
2024-04-19T05:00:39.180Z,50.92
2024-04-19T05:01:39.088Z,52.20
2024-04-19T05:02:39.111Z,51.22
2024-04-19T05:03:39.106Z,54.51
2024-04-19T05:04:39.095Z,53.27
2024-04-19T05:05:39.056Z,52.14
2024-04-19T05:06:39.107Z,53.05
2024-04-19T05:07:39.082Z,51.62
2024-04-19T05:08:39.074Z,52.98
2024-04-19T05:09:39.180Z,53.47
2024-04-19T05:10:39.147Z,52.15
2024-04-19T05:11:39.226Z,51.83
2024-04-19T05:12:39.316Z,53.41
2024-04-19T05:13:39.273Z,50.46
2024-04-19T05:14:39.328Z,52.39
2024-04-19T05:15:39.409Z,51.22
2024-04-19T05:16:39.411Z,52.59
2024-04-19T05:17:39.555Z,52.99
2024-04-19T05:18:39.555Z,53.20
2024-04-19T05:19:39.585Z,53.62
2024-04-19T05:20:40.316Z,53.81
2024-04-19T05:21:39.706Z,54.26
2024-04-19T05:22:39.654Z,53.46
2024-04-19T05:23:39.762Z,52.57
2024-04-19T05:24:39.877Z,53.00
2024-04-19T05:25:39.806Z,52.55
2024-04-19T05:26:39.864Z,53.32
2024-04-19T05:27:39.951Z,53.53
2024-04-19T05:28:39.938Z,54.21
2024-04-19T05:29:39.970Z,55.92
2024-04-19T05:30:40.102Z,53.88
2024-04-19T05:31:40.227Z,53.23
2024-04-19T05:32:40.231Z,54.53
2024-04-19T05:33:40.271Z,50.07
2024-04-19T05:34:40.216Z,54.38
2024-04-19T05:35:40.319Z,53.37
2024-04-19T05:36:40.325Z,53.15
2024-04-19T05:37:40.357Z,55.40
2024-04-19T05:38:40.413Z,53.40
2024-04-19T05:39:40.742Z,54.85
2024-04-19T05:40:40.544Z,57.09
2024-04-19T05:41:40.605Z,58.15
2024-04-19T05:42:40.662Z,57.71
2024-04-19T05:43:40.665Z,56.42
2024-04-19T05:44:40.678Z,52.80
2024-04-19T05:45:40.728Z,51.23
2024-04-19T05:46:40.706Z,50.00
2024-04-19T05:47:40.760Z,50.29
2024-04-19T05:48:40.875Z,51.66
2024-04-19T05:49:40.786Z,51.39
2024-04-19T05:50:40.803Z,51.31
2024-04-19T05:51:40.875Z,51.02
2024-04-19T05:52:40.805Z,52.74
2024-04-19T05:53:40.863Z,50.36
2024-04-19T05:54:40.973Z,51.71
2024-04-19T05:55:41.282Z,50.03
2024-04-19T05:56:41.198Z,53.11
2024-04-19T05:57:41.102Z,55.52
2024-04-19T05:58:41.069Z,53.59
2024-04-19T05:59:41.187Z,55.04
2024-04-19T06:00:41.338Z,58.01
2024-04-19T06:01:43.292Z,56.49
2024-04-19T06:02:41.411Z,55.69
2024-04-19T06:03:41.499Z,56.09
2024-04-19T06:04:41.408Z,57.45
2024-04-19T06:05:41.559Z,59.24
2024-04-19T06:06:41.777Z,58.44
2024-04-19T06:07:41.736Z,59.39
2024-04-19T06:08:41.643Z,59.17
2024-04-19T06:09:41.773Z,61.11
2024-04-19T06:10:41.817Z,64.35
2024-04-19T06:11:42.195Z,62.68
2024-04-19T06:12:41.873Z,65.91
2024-04-19T06:13:42.693Z,68.68
2024-04-19T06:14:41.901Z,67.89
2024-04-19T06:15:41.980Z,67.88
2024-04-19T06:16:42.217Z,68.81
2024-04-19T06:17:42.073Z,69.90
2024-04-19T06:18:42.379Z,69.94
2024-04-19T06:19:42.076Z,72.82
2024-04-19T06:20:42.063Z,76.14
2024-04-19T06:21:42.255Z,75.48
2024-04-19T06:22:42.186Z,79.31
2024-04-19T06:23:42.267Z,77.07
2024-04-19T06:24:42.213Z,77.75
2024-04-19T06:25:42.216Z,78.21
2024-04-19T06:26:42.282Z,80.22
2024-04-19T06:27:42.405Z,80.23
2024-04-19T06:28:42.238Z,82.20
2024-04-19T06:29:42.258Z,85.25
2024-04-19T06:30:42.749Z,85.93
2024-04-19T06:31:42.373Z,88.38
2024-04-19T06:32:42.382Z,87.60
2024-04-19T06:33:42.376Z,91.01
2024-04-19T06:34:42.334Z,93.71
2024-04-19T06:35:42.753Z,91.61
2024-04-19T06:36:42.416Z,90.35
2024-04-19T06:37:42.343Z,88.49
2024-04-19T06:38:43.333Z,88.46
2024-04-19T06:39:54.376Z,88.79
2024-04-19T06:40:43.701Z,88.90
2024-04-19T06:41:42.411Z,89.38
2024-04-19T06:42:42.431Z,90.97
2024-04-19T06:43:42.827Z,92.98
2024-04-19T06:44:42.387Z,97.88
2024-04-19T06:45:42.466Z,100.76
2024-04-19T06:46:42.411Z,102.97
2024-04-19T06:47:42.459Z,102.20
2024-04-19T06:48:42.900Z,104.94
2024-04-19T06:49:42.391Z,107.39
2024-04-19T06:50:42.784Z,108.68
2024-04-19T06:52:42.525Z,111.46
2024-04-19T06:53:42.601Z,114.86
2024-04-19T06:54:42.625Z,114.91
2024-04-19T06:55:42.704Z,118.04
2024-04-19T06:56:42.723Z,119.88
2024-04-19T06:57:42.877Z,122.92
2024-04-19T06:58:43.246Z,124.16
2024-04-19T06:59:42.964Z,125.45
2024-04-19T07:01:43.091Z,126.33
2024-04-19T07:02:43.520Z,126.70
2024-04-19T07:03:43.171Z,127.20
2024-04-19T07:04:43.181Z,129.44
2024-04-19T07:05:43.000Z,128.89
2024-04-19T07:06:45.079Z,130.27
2024-04-19T07:07:43.064Z,130.39
2024-04-19T07:08:43.096Z,130.57
2024-04-19T07:09:43.031Z,130.91
2024-04-19T07:10:43.013Z,132.73
2024-04-19T07:11:43.022Z,130.67
2024-04-19T07:12:43.244Z,130.58
2024-04-19T07:13:43.153Z,132.96
2024-04-19T07:14:43.135Z,130.69
2024-04-19T07:15:43.065Z,132.13
2024-04-19T07:16:43.095Z,131.41
2024-04-19T07:17:43.301Z,131.27
2024-04-19T07:18:43.237Z,129.70
2024-04-19T07:19:43.113Z,129.41
2024-04-19T07:20:43.021Z,130.19
2024-04-19T07:21:43.018Z,128.58
2024-04-19T07:22:43.065Z,126.65
2024-04-19T07:23:43.045Z,126.50
2024-04-19T07:24:43.306Z,123.54
2024-04-19T07:25:43.050Z,124.80
2024-04-19T07:26:43.025Z,122.49
2024-04-19T07:27:46.699Z,121.66
2024-04-19T07:28:43.004Z,121.71
2024-04-19T07:29:43.340Z,121.85
2024-04-19T07:30:43.083Z,121.89
2024-04-19T07:31:43.052Z,119.03
2024-04-19T07:32:43.274Z,116.98
2024-04-19T07:33:43.062Z,119.80
2024-04-19T07:34:43.050Z,119.59
2024-04-19T07:35:43.280Z,113.12
2024-04-19T07:36:43.059Z,108.75
2024-04-19T07:37:43.291Z,107.43
2024-04-19T07:38:43.078Z,104.61
2024-04-19T07:39:43.057Z,104.05
2024-04-19T07:40:43.030Z,101.24
2024-04-19T07:41:44.069Z,96.35
2024-04-19T07:42:43.130Z,100.63
2024-04-19T07:43:49.714Z,97.78
2024-04-19T07:44:44.043Z,94.63
2024-04-19T07:45:43.136Z,92.31
2024-04-19T07:46:43.260Z,93.13
2024-04-19T07:47:43.118Z,94.94
2024-04-19T07:48:45.821Z,92.98
2024-04-19T07:49:43.051Z,95.96
2024-04-19T07:50:43.066Z,94.55
2024-04-19T07:51:43.116Z,96.93
2024-04-19T07:52:43.234Z,97.69
2024-04-19T07:53:43.064Z,98.52
2024-04-19T07:54:43.069Z,97.84
2024-04-19T07:55:43.067Z,99.58
2024-04-19T07:56:43.176Z,98.90
2024-04-19T07:57:43.158Z,99.21
2024-04-19T07:58:43.247Z,98.35
2024-04-19T07:59:43.071Z,96.43
2024-04-19T08:00:43.243Z,96.22
2024-04-19T08:01:43.144Z,94.31
2024-04-19T08:02:43.127Z,93.61
2024-04-19T08:03:43.437Z,95.70
2024-04-19T08:04:43.214Z,92.67
2024-04-19T08:05:43.050Z,88.01
2024-04-19T08:06:43.337Z,86.46
2024-04-19T08:07:43.070Z,85.77
2024-04-19T08:08:44.762Z,86.20
2024-04-19T08:09:43.105Z,86.40
2024-04-19T08:10:43.097Z,87.17
2024-04-19T08:11:43.071Z,83.11
2024-04-19T08:12:43.111Z,83.77
2024-04-19T08:13:43.278Z,84.04
2024-04-19T08:14:43.870Z,81.79
2024-04-19T08:15:43.417Z,84.31
2024-04-19T08:16:43.173Z,84.41
2024-04-19T08:17:43.127Z,81.25
2024-04-19T08:18:43.353Z,83.43
2024-04-19T08:19:43.093Z,81.26
2024-04-19T08:20:43.113Z,80.72
2024-04-19T08:21:43.106Z,80.15
2024-04-19T08:22:43.047Z,79.55
2024-04-19T08:23:43.087Z,77.25
2024-04-19T08:24:43.171Z,78.13
2024-04-19T08:25:43.306Z,77.34
2024-04-19T08:26:43.080Z,73.00
2024-04-19T08:27:43.174Z,68.75
2024-04-19T08:28:43.092Z,71.15
2024-04-19T08:29:43.090Z,68.91
2024-04-19T08:30:43.348Z,72.34
2024-04-19T08:31:43.683Z,73.47
2024-04-19T08:32:43.155Z,73.13
2024-04-19T08:33:43.226Z,73.68
2024-04-19T08:34:43.289Z,68.37
2024-04-19T08:35:43.266Z,67.15
2024-04-19T08:36:43.279Z,67.20
2024-04-19T08:37:43.394Z,65.80
2024-04-19T08:38:43.401Z,63.97
2024-04-19T08:39:46.445Z,61.01
2024-04-19T08:40:43.463Z,60.60
2024-04-19T08:41:43.438Z,55.52
2024-04-19T08:42:43.463Z,50.00
2024-04-19T08:43:43.431Z,50.96
2024-04-19T08:44:44.295Z,49.68
2024-04-19T08:45:43.443Z,50.00
2024-04-19T08:46:43.502Z,50.00
2024-04-19T08:47:43.494Z,51.92
2024-04-19T08:48:43.527Z,52.02
2024-04-19T08:49:43.800Z,50.00
2024-04-19T08:50:43.441Z,51.34
2024-04-19T08:51:56.260Z,53.27
2024-04-19T08:53:08.710Z,53.37
2024-04-19T08:53:44.497Z,52.25
2024-04-19T08:54:43.983Z,53.26
2024-04-19T08:55:43.783Z,53.57
2024-04-19T08:56:43.508Z,53.76
2024-04-19T08:57:43.527Z,55.12
2024-04-19T08:58:49.841Z,56.86
2024-04-19T08:59:44.490Z,56.87
2024-04-19T09:00:43.910Z,57.54
2024-04-19T09:01:43.517Z,58.09
2024-04-19T09:02:44.052Z,58.81
2024-04-19T09:03:43.861Z,62.46
2024-04-19T09:04:43.530Z,59.46
2024-04-19T09:05:43.477Z,61.09
2024-04-19T09:06:43.507Z,61.39
2024-04-19T09:07:43.455Z,60.75
2024-04-19T09:08:43.474Z,62.41
2024-04-19T09:09:43.849Z,61.78
2024-04-19T09:10:43.517Z,63.52
2024-04-19T09:11:43.496Z,64.73
2024-04-19T09:12:43.635Z,66.36
2024-04-19T09:13:43.500Z,68.58
2024-04-19T09:14:43.809Z,68.83
2024-04-19T09:15:43.544Z,67.21
2024-04-19T09:16:43.573Z,69.29
2024-04-19T09:17:43.579Z,70.84
2024-04-19T09:18:43.514Z,66.12
2024-04-19T09:19:43.814Z,67.96
2024-04-19T09:20:43.803Z,67.56
2024-04-19T09:21:45.012Z,68.50
2024-04-19T09:22:43.502Z,71.37
2024-04-19T09:23:43.472Z,70.94
2024-04-19T09:24:43.884Z,73.61
2024-04-19T09:25:44.610Z,75.24
2024-04-19T09:26:43.488Z,75.33
2024-04-19T09:27:43.510Z,77.31
2024-04-19T09:28:43.562Z,77.46
2024-04-19T09:29:43.817Z,80.14
2024-04-19T09:30:43.714Z,81.12
2024-04-19T09:31:44.438Z,81.66
2024-04-19T09:32:43.970Z,80.71
2024-04-19T09:33:43.910Z,82.52
2024-04-19T09:34:43.888Z,83.59
2024-04-19T09:35:43.905Z,93.90
2024-04-19T09:36:43.940Z,97.52
2024-04-19T09:37:44.033Z,93.29
2024-04-19T09:38:43.993Z,94.48
2024-04-19T09:39:44.342Z,90.71
2024-04-19T09:40:44.886Z,86.54
2024-04-19T09:41:43.959Z,83.20
2024-04-19T09:42:45.043Z,81.53
2024-04-19T09:43:43.976Z,79.40
2024-04-19T09:44:44.338Z,72.94
2024-04-19T09:45:44.453Z,75.12
2024-04-19T09:46:44.141Z,70.88
2024-04-19T09:47:44.103Z,72.66
2024-04-19T09:48:44.513Z,71.82
2024-04-19T09:49:44.247Z,72.48
2024-04-19T09:50:44.170Z,73.37
2024-04-19T09:51:44.226Z,68.00
2024-04-19T09:52:44.162Z,65.76
2024-04-19T09:53:44.942Z,60.92
2024-04-19T09:54:44.265Z,63.46
2024-04-19T09:55:44.267Z,73.29
2024-04-19T09:56:44.258Z,69.57
2024-04-19T09:57:44.312Z,70.06
2024-04-19T09:58:44.889Z,77.99
2024-04-19T09:59:44.366Z,79.23
2024-04-19T10:00:44.498Z,82.56
2024-04-19T10:01:44.476Z,86.19
2024-04-19T10:02:44.568Z,86.03
2024-04-19T10:03:44.620Z,87.61
2024-04-19T10:04:44.607Z,86.92
2024-04-19T10:05:44.513Z,89.17
2024-04-19T10:06:45.436Z,91.62
2024-04-19T10:07:44.556Z,90.06
2024-04-19T10:08:44.550Z,94.15
2024-04-19T10:09:44.609Z,93.77
2024-04-19T10:10:44.879Z,93.77
2024-04-19T10:11:44.881Z,97.45
2024-04-19T10:12:44.689Z,98.01
2024-04-19T10:13:44.710Z,98.21
2024-04-19T10:14:44.736Z,100.82
2024-04-19T10:15:44.841Z,102.15
2024-04-19T10:16:44.826Z,102.29
2024-04-19T10:17:45.012Z,102.92
2024-04-19T10:18:45.174Z,104.94
2024-04-19T10:19:52.583Z,103.89
2024-04-19T10:20:46.062Z,103.93
2024-04-19T10:21:45.089Z,103.71
2024-04-19T10:22:45.063Z,103.10
2024-04-19T10:23:45.039Z,105.72
2024-04-19T10:24:45.118Z,107.98
2024-04-19T10:25:45.369Z,108.81
2024-04-19T10:26:45.253Z,103.54
2024-04-19T10:27:45.255Z,101.34
2024-04-19T10:28:45.201Z,101.48
2024-04-19T10:29:45.223Z,104.55
2024-04-19T10:30:45.230Z,105.55
2024-04-19T10:31:45.532Z,104.88
2024-04-19T10:32:45.294Z,102.67
2024-04-19T10:33:47.039Z,102.58
2024-04-19T10:34:45.390Z,100.51
2024-04-19T10:35:45.266Z,98.47
2024-04-19T10:36:45.371Z,97.16
2024-04-19T10:37:45.363Z,95.33
2024-04-19T10:38:45.308Z,94.82
2024-04-19T10:39:45.345Z,94.93
2024-04-19T10:40:45.421Z,90.64
2024-04-19T10:41:45.326Z,89.78
2024-04-19T10:42:45.404Z,88.18
2024-04-19T10:43:45.351Z,86.86
2024-04-19T10:44:45.351Z,86.10
2024-04-19T10:45:45.393Z,85.52
2024-04-19T10:46:45.411Z,83.41
2024-04-19T10:47:45.601Z,83.94
2024-04-19T10:48:45.433Z,82.56
2024-04-19T10:49:45.467Z,82.61
2024-04-19T10:50:45.407Z,80.65
2024-04-19T10:51:45.493Z,79.82
2024-04-19T10:52:45.449Z,77.44
2024-04-19T10:53:45.413Z,78.16
2024-04-19T10:54:46.762Z,75.08
2024-04-19T10:55:45.430Z,74.81
2024-04-19T10:56:45.435Z,75.44
2024-04-19T10:57:45.483Z,74.77
2024-04-19T10:58:45.425Z,74.15
2024-04-19T10:59:45.428Z,69.84
2024-04-19T11:00:45.476Z,67.00
2024-04-19T11:01:45.515Z,66.38
2024-04-19T11:02:45.481Z,65.12
2024-04-19T11:03:45.525Z,63.89
2024-04-19T11:04:45.622Z,64.29
2024-04-19T11:05:45.547Z,64.22
2024-04-19T11:06:45.602Z,61.43
2024-04-19T11:07:45.607Z,60.45
2024-04-19T11:08:45.573Z,58.98
2024-04-19T11:09:45.642Z,59.28
2024-04-19T11:10:45.587Z,54.04
2024-04-19T11:11:45.626Z,52.04
2024-04-19T11:12:45.651Z,52.19
2024-04-19T11:13:45.659Z,53.46
2024-04-19T11:14:45.702Z,51.82
2024-04-19T11:15:52.671Z,51.51
2024-04-19T11:16:46.694Z,51.66
2024-04-19T11:17:48.144Z,52.05
2024-04-19T11:18:45.802Z,51.71
2024-04-19T11:19:45.670Z,52.75
2024-04-19T11:20:50.500Z,54.67
2024-04-19T11:21:46.822Z,51.98
2024-04-19T11:22:45.674Z,53.71
2024-04-19T11:23:46.936Z,57.27
2024-04-19T11:24:45.703Z,61.76
2024-04-19T11:25:45.723Z,67.38
2024-04-19T11:26:45.675Z,68.38
2024-04-19T11:27:45.727Z,68.95
2024-04-19T11:28:45.719Z,72.19
2024-04-19T11:29:45.728Z,76.05
2024-04-19T11:30:45.769Z,79.47
2024-04-19T11:31:45.781Z,81.66
2024-04-19T11:32:45.803Z,82.80
2024-04-19T11:33:45.776Z,85.32
2024-04-19T11:34:45.759Z,86.24
2024-04-19T11:35:45.806Z,85.81
2024-04-19T11:36:45.823Z,85.39
2024-04-19T11:37:45.773Z,86.15
2024-04-19T11:38:45.830Z,89.93
2024-04-19T11:39:45.962Z,90.77
2024-04-19T11:40:45.841Z,91.89
2024-04-19T11:41:45.902Z,92.22
2024-04-19T11:42:45.928Z,93.02
2024-04-19T11:43:45.964Z,93.73
2024-04-19T11:44:45.866Z,95.43
2024-04-19T11:45:45.956Z,96.62
2024-04-19T11:46:45.880Z,95.85
2024-04-19T11:47:45.955Z,97.50
2024-04-19T11:48:45.961Z,98.78
2024-04-19T11:49:45.931Z,99.10
2024-04-19T11:50:45.908Z,101.42
2024-04-19T11:51:45.940Z,100.88
2024-04-19T11:52:46.028Z,101.25
2024-04-19T11:53:45.929Z,102.59
2024-04-19T11:54:45.991Z,100.94
2024-04-19T11:55:45.999Z,102.80
2024-04-19T11:56:45.947Z,103.53
2024-04-19T11:57:45.982Z,104.33
2024-04-19T11:58:45.955Z,106.09
2024-04-19T11:59:45.960Z,106.05
2024-04-19T12:00:46.120Z,104.71
2024-04-19T12:01:46.047Z,104.78
2024-04-19T12:02:46.038Z,104.44
2024-04-19T12:03:46.204Z,106.35
2024-04-19T12:04:46.248Z,106.92
2024-04-19T12:05:46.120Z,106.76
2024-04-19T12:06:46.129Z,106.69
2024-04-19T12:07:46.162Z,107.10
2024-04-19T12:08:46.201Z,107.45
2024-04-19T12:09:46.223Z,107.81
2024-04-19T12:10:46.232Z,109.92
2024-04-19T12:12:18.347Z,109.72
2024-04-19T12:14:33.168Z,109.77
2024-04-19T12:15:37.516Z,109.83
2024-04-19T12:16:20.504Z,109.85
2024-04-19T12:16:52.556Z,109.92
2024-04-19T12:17:47.457Z,109.99
2024-04-19T12:18:46.410Z,111.07
2024-04-19T12:19:46.471Z,112.33
2024-04-19T12:20:51.473Z,113.63
2024-04-19T12:22:53.600Z,110.68
2024-04-19T12:23:48.962Z,109.95
2024-04-19T12:25:46.961Z,111.44
2024-04-19T12:26:46.455Z,111.98
2024-04-19T12:27:46.474Z,112.07
2024-04-19T12:28:54.137Z,108.91
2024-04-19T12:29:47.370Z,107.57
2024-04-19T12:30:46.322Z,104.34
2024-04-19T12:31:46.285Z,99.06
2024-04-19T12:32:46.390Z,94.88
2024-04-19T12:33:46.409Z,91.03
2024-04-19T12:34:46.305Z,88.17
2024-04-19T12:35:46.314Z,85.27
2024-04-19T12:36:46.348Z,75.70
2024-04-19T12:37:46.375Z,73.21
2024-04-19T12:38:46.306Z,68.32
2024-04-19T12:39:46.416Z,64.93
2024-04-19T12:40:46.347Z,66.48
2024-04-19T12:41:46.316Z,61.85
2024-04-19T12:42:46.372Z,59.60
2024-04-19T12:43:46.318Z,56.73
2024-04-19T12:44:46.318Z,54.59
2024-04-19T12:45:46.374Z,54.97